Time;durP1;ratioP1;P1;durP2;ratioP2;P2;SDS_P1;SDS_P2;PMS_P1;PMS_P2;Temp;Humidity;BMP_temperature;BMP_pressure;BME280_temperature;BME280_humidity;BME280_pressure;Samples;Min_cycle;Max_cycle;Signal;HPM_P1;HPM_P2
2021/07/08 00:00:41;;;;;;;6.00;1.37;;;;;;;15.44;nan;96896.84;3547194;40;20545;-72
2021/07/08 00:03:09;;;;;;;2.60;1.40;;;;;;;15.52;nan;96899.66;3547511;40;20863;-72
2021/07/08 00:05:40;;;;;;;3.70;1.23;;;;;;;15.52;nan;96901.47;3549304;40;20731;-72
2021/07/08 00:08:10;;;;;;;3.57;1.20;;;;;;;15.49;nan;96910.50;3549658;40;20452;-73
2021/07/08 00:10:40;;;;;;;4.00;1.17;;;;;;;15.39;nan;96896.41;3545913;40;20490;-70
2021/07/08 00:13:08;;;;;;;4.50;1.50;;;;;;;15.36;nan;96908.03;3546436;40;20546;-71
2021/07/08 00:15:37;;;;;;;3.03;1.10;;;;;;;15.26;nan;96911.56;3547772;40;20507;-71
2021/07/08 00:18:08;;;;;;;2.70;1.20;;;;;;;15.30;nan;96900.63;3551296;40;20451;-69
2021/07/08 00:20:40;;;;;;;3.67;1.17;;;;;;;15.40;nan;96898.88;3551551;40;20538;-72
2021/07/08 00:23:09;;;;;;;6.43;1.40;;;;;;;15.47;nan;96895.75;3547991;40;20448;-72
2021/07/08 00:25:37;;;;;;;5.80;1.30;;;;;;;15.47;nan;96904.50;3546599;40;20501;-72
2021/07/08 00:28:07;;;;;;;4.13;1.33;;;;;;;15.40;nan;96908.63;3548362;40;20536;-72
2021/07/08 00:30:35;;;;;;;7.57;1.17;;;;;;;15.47;nan;96911.59;3553872;40;20847;-71
2021/07/08 00:33:03;;;;;;;2.63;1.23;;;;;;;15.38;nan;96906.09;3550057;40;20452;-71
2021/07/08 00:35:31;;;;;;;2.13;1.30;;;;;;;15.41;nan;96899.75;3548547;40;20788;-72
2021/07/08 00:37:59;;;;;;;5.40;1.57;;;;;;;15.46;nan;96889.63;3546699;40;20447;-72
2021/07/08 00:40:29;;;;;;;7.70;1.37;;;;;;;15.48;nan;96892.97;3547487;40;20483;-70
2021/07/08 00:42:57;;;;;;;10.37;1.83;;;;;;;15.51;nan;96892.72;3551106;40;20522;-72
2021/07/08 00:45:26;;;;;;;8.37;1.50;;;;;;;15.68;nan;96888.69;3552215;40;20466;-72
2021/07/08 00:47:55;;;;;;;6.73;1.20;;;;;;;15.69;nan;96876.31;3549300;40;20820;-70
2021/07/08 00:50:26;;;;;;;5.10;1.83;;;;;;;15.68;nan;96862.28;3547700;40;20552;-72
2021/07/08 00:52:55;;;;;;;2.97;1.37;;;;;;;15.62;nan;96868.06;3551401;40;20541;-71
2021/07/08 00:55:24;;;;;;;6.57;1.20;;;;;;;15.53;nan;96871.50;3549612;40;20466;-71
2021/07/08 00:57:54;;;;;;;10.70;1.40;;;;;;;15.31;nan;96864.53;3552154;40;20471;-70
2021/07/08 01:00:27;;;;;;;10.30;1.10;;;;;;;15.24;nan;96848.38;3548995;40;20560;-70
2021/07/08 01:02:56;;;;;;;8.57;1.40;;;;;;;15.33;nan;96837.06;3548438;40;20890;-72
2021/07/08 01:05:31;;;;;;;7.57;1.30;;;;;;;15.43;nan;96821.28;3548405;40;21146;-71
2021/07/08 01:08:00;;;;;;;8.20;1.93;;;;;;;15.44;nan;96812.41;3547845;40;20478;-71
2021/07/08 01:10:29;;;;;;;4.53;1.67;;;;;;;15.50;nan;96818.97;3550273;40;20930;-71
2021/07/08 01:12:59;;;;;;;4.50;1.37;;;;;;;15.43;nan;96823.94;3549777;40;20439;-72
2021/07/08 01:15:27;;;;;;;5.23;1.53;;;;;;;15.39;nan;96830.44;3546522;40;20513;-72
2021/07/08 01:17:55;;;;;;;5.63;1.93;;;;;;;15.18;nan;96830.44;3545297;40;20478;-72
2021/07/08 01:20:26;;;;;;;4.53;1.20;;;;;;;15.15;nan;96822.75;3547519;40;20688;-71
2021/07/08 01:23:04;;;;;;;1.73;1.53;;;;;;;15.29;nan;96829.53;3550957;40;20459;-71
2021/07/08 01:25:35;;;;;;;7.90;1.77;;;;;;;15.31;nan;96865.38;3548601;40;20568;-71
2021/07/08 01:28:05;;;;;;;6.10;1.60;;;;;;;15.07;nan;96891.97;3549926;40;20435;-71
2021/07/08 01:30:34;;;;;;;12.77;2.00;;;;;;;14.87;nan;96893.63;3551575;40;20725;-70
2021/07/08 01:33:05;;;;;;;11.60;2.60;;;;;;;14.65;nan;96883.97;3551966;40;20447;-69
2021/07/08 01:35:34;;;;;;;7.90;1.80;;;;;;;14.55;nan;96875.13;3552227;40;20843;-70
2021/07/08 01:38:04;;;;;;;9.60;1.80;;;;;;;14.51;nan;96873.69;3549590;40;20776;-72
2021/07/08 01:40:32;;;;;;;1.93;1.50;;;;;;;14.46;nan;96875.84;3548050;40;20713;-71
2021/07/08 01:43:00;;;;;;;12.80;1.53;;;;;;;14.52;nan;96880.63;3548013;40;20795;-72
2021/07/08 01:45:38;;;;;;;4.70;1.60;;;;;;;14.41;nan;96870.97;3552597;40;20490;-73
2021/07/08 01:48:06;;;;;;;4.13;1.40;;;;;;;14.62;nan;96871.03;3551165;40;20953;-72
2021/07/08 01:50:35;;;;;;;11.93;1.63;;;;;;;14.77;nan;96858.44;3550503;40;20857;-71
2021/07/08 01:53:04;;;;;;;8.07;1.50;;;;;;;14.76;nan;96857.59;3548039;40;20480;-73
2021/07/08 01:55:32;;;;;;;5.50;1.60;;;;;;;14.86;nan;96854.19;3548018;40;20467;-71
2021/07/08 01:58:01;;;;;;;4.50;1.67;;;;;;;14.92;nan;96848.44;3545119;40;20833;-71
2021/07/08 02:00:29;;;;;;;12.03;1.87;;;;;;;14.96;nan;96841.94;3545395;40;20467;-72
2021/07/08 02:02:57;;;;;;;6.40;1.50;;;;;;;14.97;nan;96841.78;3548390;40;20907;-73
2021/07/08 02:05:26;;;;;;;3.03;1.13;;;;;;;14.89;nan;96838.13;3546380;40;20787;-72
2021/07/08 02:07:54;;;;;;;4.67;1.17;;;;;;;14.73;nan;96815.66;3546147;40;20930;-73
2021/07/08 02:10:23;;;;;;;4.53;1.60;;;;;;;14.92;nan;96835.25;3545405;40;20479;-71
2021/07/08 02:12:51;;;;;;;2.47;1.37;;;;;;;14.91;nan;96830.94;3548554;40;20448;-72
2021/07/08 02:15:21;;;;;;;7.60;1.80;;;;;;;14.96;nan;96823.47;3551044;40;20888;-73
2021/07/08 02:17:49;;;;;;;4.03;1.37;;;;;;;14.97;nan;96825.97;3550287;40;20444;-73
2021/07/08 02:20:17;;;;;;;3.83;1.40;;;;;;;14.99;nan;96836.41;3547336;40;20545;-73
2021/07/08 02:22:46;;;;;;;4.00;1.57;;;;;;;15.00;nan;96836.28;3551334;40;20779;-72
2021/07/08 02:25:15;;;;;;;9.90;1.67;;;;;;;15.00;nan;96836.28;3548033;40;20514;-73
2021/07/08 02:27:45;;;;;;;9.03;1.53;;;;;;;14.92;nan;96822.06;3545983;40;20515;-73
2021/07/08 02:30:15;;;;;;;8.40;1.70;;;;;;;14.90;nan;96824.00;3546407;40;20769;-73
2021/07/08 02:32:44;;;;;;;5.43;3.87;;;;;;;14.97;nan;96831.25;3548187;40;20929;-72
2021/07/08 02:35:13;;;;;;;3.63;1.50;;;;;;;14.97;nan;96840.97;3547956;40;20510;-71
2021/07/08 02:37:42;;;;;;;5.10;1.90;;;;;;;14.97;nan;96835.69;3545291;40;20922;-72
2021/07/08 02:40:12;;;;;;;1.73;1.33;;;;;;;14.87;nan;96832.97;3545824;40;20922;-73
2021/07/08 02:42:40;;;;;;;4.53;1.53;;;;;;;14.77;nan;96837.34;3548242;40;21195;-72
2021/07/08 02:45:11;;;;;;;6.40;2.30;;;;;;;14.75;nan;96829.53;3548275;40;20525;-73
2021/07/08 02:47:38;;;;;;;5.50;1.23;;;;;;;14.63;nan;96831.38;3552997;40;20460;-74
2021/07/08 02:50:08;;;;;;;5.00;1.40;;;;;;;14.74;nan;96830.53;3548756;40;20786;-71
2021/07/08 02:52:36;;;;;;;18.10;2.33;;;;;;;14.80;nan;96834.47;3554106;40;20477;-74
2021/07/08 02:55:05;;;;;;;9.23;1.90;;;;;;;14.84;nan;96830.59;3550125;40;21001;-71
2021/07/08 02:57:32;;;;;;;6.67;2.23;;;;;;;14.79;nan;96833.59;3549243;40;20581;-73
2021/07/08 03:00:00;;;;;;;11.50;4.33;;;;;;;14.73;nan;96841.19;3554711;40;20476;-74
2021/07/08 03:02:30;;;;;;;12.17;4.40;;;;;;;14.73;nan;96838.56;3550153;40;20828;-72
2021/07/08 03:04:58;;;;;;;9.30;3.47;;;;;;;14.79;nan;96840.69;3548160;40;20670;-72
2021/07/08 03:07:26;;;;;;;10.57;4.40;;;;;;;14.83;nan;96850.00;3547715;40;20468;-73
2021/07/08 03:09:53;;;;;;;8.40;3.90;;;;;;;14.79;nan;96845.94;3548533;40;20864;-72
2021/07/08 03:12:21;;;;;;;7.70;4.50;;;;;;;14.80;nan;96839.72;3555410;40;20849;-71
2021/07/08 03:14:50;;;;;;;17.83;4.20;;;;;;;14.86;nan;96848.91;3549513;40;20888;-73
2021/07/08 03:17:17;;;;;;;6.83;4.63;;;;;;;14.79;nan;96849.41;3548173;40;20452;-73
2021/07/08 03:19:47;;;;;;;5.50;4.17;;;;;;;14.80;nan;96840.56;3548891;40;20497;-74
2021/07/08 03:22:15;;;;;;;4.90;2.80;;;;;;;14.75;nan;96834.00;3550671;40;20708;-73
2021/07/08 03:24:43;;;;;;;8.27;3.40;;;;;;;14.51;nan;96856.06;3553125;40;20540;-73
2021/07/08 03:27:11;;;;;;;12.40;3.73;;;;;;;14.30;nan;96852.53;3550652;40;20539;-74
2021/07/08 03:29:39;;;;;;;6.20;2.00;;;;;;;14.33;nan;96847.84;3549809;40;20464;-73
2021/07/08 03:32:08;;;;;;;16.17;3.80;;;;;;;14.22;nan;96847.88;3551652;40;20473;-72
2021/07/08 03:34:36;;;;;;;10.60;3.20;;;;;;;14.37;nan;96854.56;3548812;40;20821;-71
2021/07/08 03:37:06;;;;;;;16.27;3.80;;;;;;;14.23;nan;96857.47;3551511;40;20468;-71
2021/07/08 03:39:33;;;;;;;4.27;1.70;;;;;;;14.51;nan;96856.06;3551724;40;20479;-72
2021/07/08 03:42:01;;;;;;;3.23;1.40;;;;;;;14.60;nan;96842.19;3550552;40;20472;-71
2021/07/08 03:44:29;;;;;;;8.33;2.00;;;;;;;14.63;nan;96839.28;3552248;40;20446;-71
2021/07/08 03:46:57;;;;;;;4.43;1.70;;;;;;;14.72;nan;96842.13;3550446;40;20931;-71
2021/07/08 03:49:25;;;;;;;2.50;1.23;;;;;;;14.78;nan;96833.75;3551552;40;20820;-73
2021/07/08 03:51:53;;;;;;;3.00;1.30;;;;;;;14.57;nan;96788.91;3549764;40;20698;-72
2021/07/08 03:54:23;;;;;;;9.10;1.20;;;;;;;14.87;nan;96829.50;3549046;40;20545;-72
2021/07/08 03:56:51;;;;;;;3.20;1.23;;;;;;;14.89;nan;96833.69;3553300;40;20840;-74
2021/07/08 03:59:18;;;;;;;5.80;1.40;;;;;;;14.94;nan;96823.59;3548656;40;20575;-71
2021/07/08 04:01:46;;;;;;;5.63;1.40;;;;;;;14.97;nan;96825.13;3547603;40;20444;-72
2021/07/08 04:04:14;;;;;;;2.80;1.50;;;;;;;15.01;nan;96826.56;3546552;40;20447;-70
2021/07/08 04:06:42;;;;;;;9.83;1.33;;;;;;;15.03;nan;96829.91;3547136;40;20437;-71
2021/07/08 04:09:10;;;;;;;4.67;1.40;;;;;;;15.03;nan;96829.91;3549411;40;21062;-71
2021/07/08 04:11:40;;;;;;;1.73;1.03;;;;;;;15.05;nan;96837.69;3549324;40;20546;-71
2021/07/08 04:14:08;;;;;;;8.90;1.23;;;;;;;15.12;nan;96833.59;3553040;40;20440;-70
2021/07/08 04:16:36;;;;;;;2.40;1.10;;;;;;;15.18;nan;96822.53;3550161;40;20576;-72
2021/07/08 04:19:04;;;;;;;3.37;1.20;;;;;;;15.27;nan;96820.91;3546528;40;20456;-72
2021/07/08 04:21:32;;;;;;;2.87;1.40;;;;;;;15.25;nan;96813.13;3548296;40;20468;-73
2021/07/08 04:24:00;;;;;;;5.57;1.37;;;;;;;15.31;nan;96801.19;3545901;40;20819;-73
2021/07/08 04:26:28;;;;;;;1.63;1.30;;;;;;;15.31;nan;96795.94;3547834;40;20440;-73
2021/07/08 04:28:57;;;;;;;6.03;1.20;;;;;;;15.36;nan;96799.03;3546955;40;20444;-73
2021/07/08 04:31:25;;;;;;;4.63;1.57;;;;;;;15.43;nan;96802.81;3550920;40;20791;-73
2021/07/08 04:33:53;;;;;;;3.10;1.30;;;;;;;15.40;nan;96806.53;3553093;40;20905;-71
2021/07/08 04:36:21;;;;;;;6.07;1.13;;;;;;;15.36;nan;96799.03;3548381;40;20460;-73
2021/07/08 04:38:52;;;;;;;6.50;1.30;;;;;;;15.39;nan;96801.41;3551799;40;20541;-73
2021/07/08 04:41:21;;;;;;;3.83;1.10;;;;;;;15.36;nan;96810.41;3550221;40;20566;-73
2021/07/08 04:43:52;;;;;;;4.57;1.40;;;;;;;15.25;nan;96785.91;3555273;40;20440;-70
2021/07/08 04:46:25;;;;;;;9.07;1.73;;;;;;;15.32;nan;96794.97;3546513;40;20444;-73
2021/07/08 04:48:53;;;;;;;9.80;1.30;;;;;;;15.33;nan;96800.13;3548022;40;20856;-73
2021/07/08 04:51:21;;;;;;;2.40;1.13;;;;;;;15.33;nan;96788.75;3549911;40;20482;-75
2021/07/08 04:53:49;;;;;;;9.37;1.43;;;;;;;15.42;nan;96793.22;3550013;40;20795;-73
2021/07/08 04:56:17;;;;;;;7.43;1.60;;;;;;;15.42;nan;96774.75;3546861;40;20896;-73
2021/07/08 04:58:45;;;;;;;4.70;1.80;;;;;;;15.56;nan;96802.59;3548021;40;20435;-72
2021/07/08 05:01:14;;;;;;;2.63;1.53;;;;;;;15.73;nan;96812.56;3546513;40;20926;-72
2021/07/08 05:03:43;;;;;;;2.13;1.53;;;;;;;15.54;nan;96823.88;3546948;40;20512;-75
2021/07/08 05:06:11;;;;;;;4.30;1.50;;;;;;;15.54;nan;96826.50;3548024;40;20466;-73
2021/07/08 05:08:40;;;;;;;5.07;1.90;;;;;;;15.62;nan;96850.44;3547116;40;20526;-72
2021/07/08 05:11:08;;;;;;;2.70;1.27;;;;;;;15.31;nan;96860.09;3547020;40;20568;-72
2021/07/08 05:13:36;;;;;;;4.23;1.63;;;;;;;15.01;nan;96868.75;3549674;40;20823;-72
2021/07/08 05:16:05;;;;;;;7.60;1.63;;;;;;;15.00;nan;96867.09;3551110;40;20832;-72
2021/07/08 05:18:33;;;;;;;14.43;1.73;;;;;;;15.12;nan;96881.91;3547708;40;20458;-72
2021/07/08 05:21:02;;;;;;;6.10;1.90;;;;;;;15.10;nan;96875.09;3549616;40;21158;-72
2021/07/08 05:23:32;;;;;;;11.70;2.43;;;;;;;15.05;nan;96867.53;3548744;40;20482;-72
2021/07/08 05:26:02;;;;;;;6.07;1.93;;;;;;;15.26;nan;96859.66;3551881;40;20912;-72
2021/07/08 05:28:31;;;;;;;4.10;1.50;;;;;;;15.56;nan;96858.03;3549575;40;20739;-72
2021/07/08 05:30:59;;;;;;;3.07;1.60;;;;;;;15.79;nan;96864.84;3545355;40;20694;-72
2021/07/08 05:33:27;;;;;;;3.00;1.40;;;;;;;15.94;nan;96867.16;3553399;40;20479;-72
2021/07/08 05:35:55;;;;;;;4.03;1.70;;;;;;;16.09;nan;96870.25;3545487;40;20873;-72
2021/07/08 05:38:28;;;;;;;4.97;1.63;;;;;;;16.26;nan;96869.63;3548316;40;20705;-72
2021/07/08 05:40:55;;;;;;;5.83;1.60;;;;;;;16.36;nan;96877.59;3550128;40;20478;-72
2021/07/08 05:43:23;;;;;;;6.27;1.80;;;;;;;16.39;nan;96879.97;3549913;40;20825;-72
2021/07/08 05:45:51;;;;;;;7.23;1.30;;;;;;;16.38;nan;96896.78;3546065;40;20914;-72
2021/07/08 05:48:19;;;;;;;3.87;1.20;;;;;;;16.21;nan;96895.63;3546210;40;20470;-72
2021/07/08 05:50:47;;;;;;;2.87;1.60;;;;;;;16.16;nan;96909.22;3545997;40;20981;-72
2021/07/08 05:53:18;;;;;;;12.43;1.77;;;;;;;16.09;nan;96908.09;3547106;40;20442;-71
2021/07/08 05:55:47;;;;;;;3.17;1.57;;;;;;;16.00;nan;96907.06;3544416;40;20808;-71
2021/07/08 05:58:15;;;;;;;4.90;1.30;;;;;;;15.89;nan;96928.28;3549020;40;20855;-72
2021/07/08 06:00:43;;;;;;;66.13;36.27;;;;;;;15.91;nan;96931.63;3548896;40;20507;-70
2021/07/08 06:03:11;;;;;;;63.47;30.70;;;;;;;15.86;nan;96933.84;3549160;40;20812;-71
2021/07/08 06:05:39;;;;;;;5.50;2.43;;;;;;;15.71;nan;96935.09;3550101;40;20905;-73
2021/07/08 06:08:10;;;;;;;3.00;1.97;;;;;;;15.59;nan;96932.50;3548739;40;20698;-71
2021/07/08 06:10:41;;;;;;;2.07;1.20;;;;;;;15.83;nan;96918.22;3549757;40;20554;-72
2021/07/08 06:13:10;;;;;;;13.80;1.90;;;;;;;15.91;nan;96926.34;3548355;40;21212;-73
2021/07/08 06:15:40;;;;;;;12.10;2.40;;;;;;;15.94;nan;96930.53;3551076;40;20707;-73
2021/07/08 06:18:08;;;;;;;5.53;1.73;;;;;;;15.98;nan;96927.50;3550793;40;20811;-72
2021/07/08 06:20:36;;;;;;;11.90;1.50;;;;;;;15.94;nan;96931.38;3546864;40;20572;-72
2021/07/08 06:23:04;;;;;;;5.57;1.47;;;;;;;15.89;nan;96935.38;3551318;40;20524;-71
2021/07/08 06:25:32;;;;;;;11.60;1.60;;;;;;;15.88;nan;96926.63;3547959;40;21103;-70
2021/07/08 06:28:00;;;;;;;8.77;1.57;;;;;;;15.91;nan;96909.66;3550952;40;20810;-72
2021/07/08 06:30:29;;;;;;;19.13;2.30;;;;;;;15.87;nan;96905.63;3552387;40;20684;-71
2021/07/08 06:32:57;;;;;;;11.00;1.97;;;;;;;15.94;nan;96906.78;3549475;40;20979;-70
2021/07/08 06:35:25;;;;;;;5.70;1.87;;;;;;;16.10;nan;96914.22;3547784;40;20852;-74
2021/07/08 06:37:53;;;;;;;20.33;2.20;;;;;;;16.12;nan;96922.84;3551317;40;20533;-72
2021/07/08 06:40:21;;;;;;;7.50;1.93;;;;;;;16.16;nan;96929.53;3552337;40;20511;-73
2021/07/08 06:42:49;;;;;;;13.93;2.37;;;;;;;16.33;nan;96923.63;3555605;40;20816;-71
2021/07/08 06:45:18;;;;;;;22.33;2.70;;;;;;;16.37;nan;96929.47;3550810;40;20467;-73
2021/07/08 06:47:50;;;;;;;6.10;1.40;;;;;;;16.34;nan;96921.81;3549420;40;20826;-73
2021/07/08 06:50:20;;;;;;;1.97;1.40;;;;;;;16.46;nan;96930.47;3547409;40;20463;-71
2021/07/08 06:52:48;;;;;;;2.60;1.37;;;;;;;16.52;nan;96928.13;3546890;40;20840;-71
2021/07/08 06:55:16;;;;;;;1.97;1.17;;;;;;;16.54;nan;96922.69;3546271;40;20482;-69
2021/07/08 06:57:51;;;;;;;4.33;1.20;;;;;;;16.34;nan;96930.56;3549395;40;20448;-71
2021/07/08 07:00:21;;;;;;;2.53;1.73;;;;;;;16.54;nan;96931.50;3546793;40;20474;-75
2021/07/08 07:02:51;;;;;;;1.53;1.30;;;;;;;16.62;nan;96930.78;3550297;40;20664;-71
2021/07/08 07:05:19;;;;;;;4.63;2.40;;;;;;;16.49;nan;96931.03;3552587;40;20823;-70
2021/07/08 07:07:47;;;;;;;6.33;1.60;;;;;;;16.84;nan;96929.78;3551504;40;20942;-72
2021/07/08 07:10:16;;;;;;;4.73;1.20;;;;;;;16.95;nan;96920.88;3549265;40;20917;-71
2021/07/08 07:12:45;;;;;;;1.57;1.10;;;;;;;17.20;nan;96922.16;3547053;40;20556;-72
2021/07/08 07:15:14;;;;;;;2.00;1.60;;;;;;;17.38;nan;96912.53;3546194;40;20491;-72
2021/07/08 07:17:43;;;;;;;3.00;1.20;;;;;;;17.54;nan;96911.13;3547688;40;20529;-72
2021/07/08 07:20:15;;;;;;;5.97;1.97;;;;;;;17.75;nan;96909.13;3551064;40;20933;-71
2021/07/08 07:22:45;;;;;;;1.53;1.23;;;;;;;17.93;nan;96911.91;3548921;40;20479;-71
2021/07/08 07:25:14;;;;;;;5.10;1.20;;;;;;;18.13;nan;96902.09;3554195;40;20443;-71
2021/07/08 07:27:42;;;;;;;3.50;1.20;;;;;;;18.22;nan;96895.09;3551469;40;20937;-75
2021/07/08 07:30:12;;;;;;;7.43;1.40;;;;;;;18.14;nan;96894.97;3551750;40;20896;-72
2021/07/08 07:32:40;;;;;;;1.40;1.10;;;;;;;17.76;nan;96900.22;3549590;40;20511;-71
2021/07/08 07:35:08;;;;;;;2.60;1.70;;;;;;;17.68;nan;96907.19;3550458;40;20458;-72
2021/07/08 07:37:38;;;;;;;3.13;1.33;;;;;;;17.76;nan;96900.22;3551677;40;20884;-69
2021/07/08 07:40:06;;;;;;;1.10;1.00;;;;;;;17.88;nan;96897.44;3548693;40;20549;-72
2021/07/08 07:42:35;;;;;;;3.30;1.00;;;;;;;18.20;nan;96912.13;3552059;40;20913;-73
2021/07/08 07:45:05;;;;;;;3.50;1.67;;;;;;;18.07;nan;96907.13;3552042;40;20528;-71
2021/07/08 07:47:33;;;;;;;1.97;1.13;;;;;;;17.88;nan;96900.91;3551380;40;20957;-72
2021/07/08 07:50:01;;;;;;;1.97;1.20;;;;;;;17.75;nan;96908.31;3549986;40;20467;-71
2021/07/08 07:52:29;;;;;;;18.63;11.83;;;;;;;17.79;nan;96904.38;3550776;40;20891;-73
2021/07/08 07:54:58;;;;;;;5.57;3.10;;;;;;;17.74;nan;96904.00;3548771;40;20463;-72
2021/07/08 07:57:26;;;;;;;3.53;1.20;;;;;;;17.78;nan;96908.03;3551488;40;20444;-74
2021/07/08 07:59:54;;;;;;;1.60;1.23;;;;;;;17.88;nan;96906.22;3551644;40;21084;-73
2021/07/08 08:02:22;;;;;;;3.30;1.37;;;;;;;17.82;nan;96905.91;3548753;40;20954;-74
2021/07/08 08:05:06;;;;;;;1.80;1.37;;;;;;;17.97;nan;96907.16;3550827;40;20475;-74
2021/07/08 08:10:23;;;;;;;1.53;0.73;;;;;;;18.39;nan;96904.09;3550922;40;20548;-70
2021/07/08 08:12:51;;;;;;;1.20;1.10;;;;;;;18.29;nan;96898.00;3549580;40;20468;-72
2021/07/08 08:15:19;;;;;;;1.83;1.20;;;;;;;18.44;nan;96898.34;3548476;40;20675;-71
2021/07/08 08:17:48;;;;;;;3.63;1.20;;;;;;;18.73;nan;96898.16;3555495;40;20460;-73
2021/07/08 08:20:16;;;;;;;1.97;1.00;;;;;;;18.61;nan;96908.16;3552280;40;20463;-73
2021/07/08 08:22:44;;;;;;;1.73;1.13;;;;;;;18.92;nan;96913.16;3560362;40;20484;-71
2021/07/08 08:25:13;;;;;;;1.53;1.07;;;;;;;18.83;nan;96911.41;3550828;40;20892;-71
2021/07/08 08:27:42;;;;;;;2.03;1.00;;;;;;;19.26;nan;96909.84;3551438;40;20781;-74
2021/07/08 08:30:14;;;;;;;0.87;0.70;;;;;;;19.23;nan;96910.97;3552144;40;20479;-71
2021/07/08 08:32:42;;;;;;;4.03;0.87;;;;;;;19.42;nan;96919.75;3550519;40;20789;-72
2021/07/08 08:35:12;;;;;;;1.00;0.80;;;;;;;19.13;nan;96916.38;3550399;40;21105;-70
2021/07/08 08:37:43;;;;;;;1.80;0.80;;;;;;;19.39;nan;96910.28;3549938;40;20432;-72
2021/07/08 08:40:12;;;;;;;3.93;1.00;;;;;;;18.92;nan;96931.75;3551067;40;20490;-73
2021/07/08 08:42:44;;;;;;;1.67;1.03;;;;;;;18.93;nan;96922.78;3550857;40;20474;-73
2021/07/08 08:45:17;;;;;;;1.67;1.00;;;;;;;19.15;nan;96930.31;3550480;40;20475;-71
2021/07/08 08:48:03;;;;;;;6.30;1.10;;;;;;;18.85;nan;96922.69;3556016;40;20916;-71
2021/07/08 08:50:33;;;;;;;1.33;1.00;;;;;;;19.17;nan;96925.69;3548569;40;20557;-73
2021/07/08 08:53:01;;;;;;;10.97;1.97;;;;;;;19.01;nan;96925.50;3548330;40;20541;-73
2021/07/08 08:55:29;;;;;;;2.23;1.60;;;;;;;18.70;nan;96933.78;3550558;40;20471;-73
2021/07/08 08:57:58;;;;;;;4.40;1.13;;;;;;;18.64;nan;96937.03;3551253;40;20727;-74
2021/07/08 09:00:50;;;;;;;1.60;1.13;;;;;;;18.69;nan;96942.72;3547895;40;20443;-72
2021/07/08 09:03:20;;;;;;;5.70;1.40;;;;;;;18.77;nan;96939.31;3550516;40;20566;-72
2021/07/08 09:05:58;;;;;;;2.73;1.40;;;;;;;18.77;nan;96942.81;3548806;40;20483;-72
2021/07/08 09:08:26;;;;;;;1.47;1.37;;;;;;;19.05;nan;96941.97;3553402;40;20932;-72
2021/07/08 09:11:09;;;;;;;4.50;1.40;;;;;;;19.08;nan;96953.13;3550914;40;20741;-71
2021/07/08 09:13:48;;;;;;;4.43;1.70;;;;;;;18.70;nan;96955.00;3555367;40;20808;-76
2021/07/08 09:16:19;;;;;;;4.67;1.17;;;;;;;18.57;nan;96952.69;3546871;40;20475;-74
2021/07/08 09:18:57;;;;;;;1.47;1.20;;;;;;;18.33;nan;96961.16;3548719;40;20478;-71
2021/07/08 09:21:25;;;;;;;3.40;1.47;;;;;;;18.29;nan;96962.44;3550538;40;20746;-74
2021/07/08 09:24:05;;;;;;;2.47;1.30;;;;;;;18.27;nan;96966.19;3548677;40;21100;-74
2021/07/08 09:26:34;;;;;;;1.77;1.47;;;;;;;18.26;nan;96968.03;3548072;40;20945;-75
2021/07/08 09:29:05;;;;;;;2.87;1.73;;;;;;;18.07;nan;96976.03;3548315;40;20456;-73
2021/07/08 09:31:34;;;;;;;3.70;1.10;;;;;;;17.96;nan;96964.63;3547972;40;20444;-73
2021/07/08 09:34:13;;;;;;;2.50;1.50;;;;;;;18.08;nan;96961.81;3550881;40;20451;-74
2021/07/08 09:36:42;;;;;;;2.53;1.30;;;;;;;18.12;nan;96957.91;3547130;40;20832;-73
2021/07/08 09:39:12;;;;;;;4.10;1.40;;;;;;;18.39;nan;96957.09;3548602;40;20446;-73
2021/07/08 09:41:48;;;;;;;3.43;1.50;;;;;;;18.49;nan;96951.75;3548541;40;20467;-75
2021/07/08 09:44:25;;;;;;;3.83;1.70;;;;;;;18.45;nan;96959.16;3550744;40;20762;-73
2021/07/08 09:46:54;;;;;;;1.40;1.20;;;;;;;18.47;nan;96948.44;3551584;40;20888;-75
2021/07/08 09:49:23;;;;;;;1.97;1.10;;;;;;;18.43;nan;96955.00;3547541;40;20483;-74
2021/07/08 09:51:52;;;;;;;2.17;1.40;;;;;;;18.43;nan;96947.06;3548155;40;20440;-76
2021/07/08 09:54:47;;;;;;;2.20;1.40;;;;;;;18.81;nan;96956.66;3551596;40;20515;-74
2021/07/08 09:57:34;;;;;;;8.13;2.30;;;;;;;18.81;nan;96966.44;3551206;40;20448;-74
2021/07/08 10:00:25;;;;;;;17.33;13.50;;;;;;;18.67;nan;96967.72;3549514;40;20937;-77
2021/07/08 10:02:54;;;;;;;32.60;19.70;;;;;;;18.57;nan;96976.56;3550158;40;20556;-73
2021/07/08 10:05:24;;;;;;;2.70;2.03;;;;;;;18.62;nan;96977.94;3548279;40;20699;-73
2021/07/08 10:07:53;;;;;;;4.47;2.40;;;;;;;18.27;nan;96967.06;3554508;40;20848;-75
2021/07/08 10:10:22;;;;;;;5.13;2.60;;;;;;;18.31;nan;96960.47;3553224;40;20699;-74
2021/07/08 10:12:50;;;;;;;4.90;2.60;;;;;;;18.47;nan;96951.06;3553480;40;21102;-73
2021/07/08 10:15:19;;;;;;;7.80;2.67;;;;;;;18.63;nan;96948.63;3548354;40;20600;-74
2021/07/08 10:17:48;;;;;;;9.03;2.43;;;;;;;19.01;nan;96948.56;3547043;40;20557;-75
2021/07/08 10:20:18;;;;;;;5.77;2.70;;;;;;;19.19;nan;96941.47;3547732;40;20530;-74
2021/07/08 10:22:46;;;;;;;2.80;2.30;;;;;;;19.13;nan;96921.69;3553592;40;21248;-73
2021/07/08 10:25:15;;;;;;;4.57;2.17;;;;;;;19.38;nan;96934.34;3554499;40;20693;-76
2021/07/08 10:27:45;;;;;;;4.80;2.20;;;;;;;19.58;nan;96930.50;3547842;40;20973;-73
2021/07/08 10:30:15;;;;;;;2.50;2.00;;;;;;;19.88;nan;96929.28;3556929;40;20679;-76
2021/07/08 10:32:45;;;;;;;2.13;1.63;;;;;;;19.88;nan;96918.66;3551404;40;20906;-74
2021/07/08 10:35:13;;;;;;;4.27;1.63;;;;;;;19.67;nan;96926.13;3556475;40;21132;-74
2021/07/08 10:37:40;;;;;;;1.73;1.10;;;;;;;19.43;nan;96927.59;3554455;40;20452;-76
2021/07/08 10:40:28;;;;;;;1.17;1.00;;;;;;;19.70;nan;96939.94;3553671;40;20476;-75
2021/07/08 10:43:10;;;;;;;2.90;0.93;;;;;;;19.16;nan;96947.91;3551594;40;20536;-74
2021/07/08 10:45:46;;;;;;;2.20;1.00;;;;;;;19.06;nan;96947.13;3549012;40;20557;-74
2021/07/08 10:48:19;;;;;;;2.60;1.13;;;;;;;19.33;nan;96948.06;3552826;40;21161;-75
2021/07/08 10:50:48;;;;;;;2.27;0.90;;;;;;;19.27;nan;96961.97;3549637;40;20879;-74
2021/07/08 10:53:21;;;;;;;1.77;1.20;;;;;;;19.10;nan;96964.44;3549446;40;20452;-75
2021/07/08 10:55:52;;;;;;;1.07;0.97;;;;;;;19.05;nan;96974.69;3548582;40;20559;-77
2021/07/08 10:58:49;;;;;;;3.80;1.10;;;;;;;19.01;nan;96972.47;3554451;40;20462;-75
2021/07/08 11:01:46;;;;;;;8.20;1.23;;;;;;;18.72;nan;96970.78;3551076;40;20872;-75
2021/07/08 11:04:16;;;;;;;1.93;1.10;;;;;;;18.70;nan;96976.22;3557323;40;20786;-75
2021/07/08 11:06:46;;;;;;;1.30;1.20;;;;;;;18.54;nan;96984.81;3549408;40;20440;-74
2021/07/08 11:09:22;;;;;;;7.13;1.40;;;;;;;18.48;nan;96980.06;3546699;40;20891;-75
2021/07/08 11:12:27;;;;;;;1.70;1.10;;;;;;;18.77;nan;96974.63;3554100;40;20563;-74
2021/07/08 11:14:54;;;;;;;1.77;1.30;;;;;;;18.48;nan;96973.94;3551184;40;20502;-75
2021/07/08 11:17:23;;;;;;;1.20;1.00;;;;;;;18.58;nan;96969.44;3553075;40;20952;-74
2021/07/08 11:19:54;;;;;;;2.93;1.10;;;;;;;18.37;nan;96965.19;3555233;40;20521;-74
2021/07/08 11:22:43;;;;;;;2.17;1.00;;;;;;;18.34;nan;96962.81;3554506;40;20510;-73
2021/07/08 11:25:12;;;;;;;1.93;0.93;;;;;;;18.42;nan;96953.31;3549396;40;20759;-75
2021/07/08 11:27:45;;;;;;;3.03;0.90;;;;;;;18.54;nan;96965.41;3555907;40;20523;-75
2021/07/08 11:30:31;;;;;;;1.07;0.97;;;;;;;18.35;nan;96956.56;3565890;40;20886;-74
2021/07/08 11:33:04;;;;;;;1.87;1.10;;;;;;;18.37;nan;96959.06;3575254;40;20472;-73
2021/07/08 11:35:38;;;;;;;2.43;1.00;;;;;;;18.41;nan;96964.91;3554102;40;20777;-76
2021/07/08 11:38:13;;;;;;;2.13;0.90;;;;;;;18.56;nan;96966.09;3547969;40;20516;-74
2021/07/08 11:40:44;;;;;;;5.93;1.40;;;;;;;18.45;nan;96955.69;3549430;40;20502;-75
2021/07/08 11:43:19;;;;;;;1.90;1.23;;;;;;;18.89;nan;96948.78;3558209;40;20836;-74
2021/07/08 11:45:50;;;;;;;4.13;1.13;;;;;;;18.74;nan;96951.09;3566340;40;20463;-75
2021/07/08 11:48:29;;;;;;;2.40;1.10;;;;;;;18.82;nan;96952.16;3553266;40;20840;-75
2021/07/08 11:50:59;;;;;;;3.30;1.20;;;;;;;18.88;nan;96943.63;3556928;40;20536;-74
2021/07/08 11:53:27;;;;;;;5.00;1.10;;;;;;;18.61;nan;96945.28;3557670;40;20497;-72
2021/07/08 11:55:58;;;;;;;1.27;1.00;;;;;;;18.60;nan;96935.63;3554171;40;20886;-73
2021/07/08 11:58:28;;;;;;;2.40;0.87;;;;;;;18.94;nan;96941.22;3548742;40;20448;-73
2021/07/08 12:00:57;;;;;;;2.03;1.00;;;;;;;18.92;nan;96934.41;3548718;40;20474;-75
2021/07/08 12:03:30;;;;;;;1.30;0.97;;;;;;;18.36;nan;96937.00;3550989;40;20844;-74
2021/07/08 12:06:04;;;;;;;1.40;0.70;;;;;;;18.66;nan;96939.53;3551729;40;20537;-75